首页
METAR-TAF:

METAR-TAF

机场 :

诺福克海军基地

諾福克, 弗吉尼亚州, 美国

纬度: 36-56-01N, 经度: 076-17-45W, 海拔: 4米

当前天气观测

该预报发布于25分钟前的10:59 UTC
风速4节,风向南转西南
温度 13°C
湿度 72%
气压 1015 hPa
能見度: 16.1公里
多云层高于6000英尺

METAR: KNGU 211059Z 21004KT 10SM BKN060 13/08 A2998 RMK AO2 SLP151 T01330083

时间: 07:24 (11:24 UTC)

预报

预报有效从21日的 07点(UTC)到 22日的 07点(UTC)
风速9节,风向西南
能见度10公里或以上
散云层高于6000英尺
散云层高于24000英尺
成为
从 21日的 18点(UTC)到 21日的 20点(UTC)
风速6节,风向多变
能见度10公里或以上
少量云层高于4000英尺
散云层高于24000英尺
短暂存在
从 22日的 00点(UTC)到 22日的 03点(UTC)
能見度: 8000
多云层高于4000英尺
小阵雨
成为
从 22日的 03点(UTC)到 22日的 04点(UTC)
风速9节,风向北转西北
能见度10公里或以上
散云层高于7000英尺
多云层高于20000英尺

TAF: KNGU 2107/2207 22009KT 9999 SCT060 SCT240 QNH2987INS BECMG 2118/2120 VRB06KT 9999 FEW040 SCT240 QNH2995INS TEMPO 2200/2203 8000 -SHRA BKN040 BECMG 2203/2204 34009KT 9999 NSW SCT070 BKN200 QNH3000INS T11/2112Z T20/2119Z FN00200

超过4000个机场的气象观测和天气预报(METAR&TAF报告)。

可查询的气象台以黄色和红色小点在地图上表示。

将鼠标移到小点上方,可查看气象台名称。

然后点击查看天气观测和预报。

如需切换地图:点击带黑十字的绿色按钮放大地图;点击带横线的绿色按钮缩小地图;或者点击绿色箭头查看邻近地区的地图。


METAR-TAF: